createdAt,value
2022-11-29T00:01:12.269Z,20.47
2022-11-29T00:03:40.245Z,20.00
2022-11-29T00:06:10.672Z,21.50
2022-11-29T00:08:39.022Z,21.57
2022-11-29T00:11:07.521Z,22.07
2022-11-29T00:13:35.663Z,20.77
2022-11-29T00:16:06.912Z,21.67
2022-11-29T00:18:34.993Z,22.33
2022-11-29T00:21:07.244Z,21.93
2022-11-29T00:23:35.444Z,22.30
2022-11-29T00:26:07.607Z,21.60
2022-11-29T00:28:36.793Z,21.37
2022-11-29T00:31:16.302Z,22.27
2022-11-29T00:33:44.102Z,22.27
2022-11-29T00:36:12.240Z,20.90
2022-11-29T00:38:40.393Z,20.83
2022-11-29T00:41:08.616Z,21.03
2022-11-29T00:43:36.552Z,21.37
2022-11-29T00:46:05.054Z,21.93
2022-11-29T00:48:34.362Z,20.70
2022-11-29T00:51:02.389Z,20.87
2022-11-29T00:53:32.970Z,19.90
2022-11-29T00:56:00.704Z,21.57
2022-11-29T00:58:28.540Z,22.33
2022-11-29T01:00:57.122Z,20.97
2022-11-29T01:03:25.659Z,23.10
2022-11-29T01:06:00.920Z,20.40
2022-11-29T01:08:28.917Z,20.83
2022-11-29T01:11:03.891Z,19.67
2022-11-29T01:13:31.642Z,20.90
2022-11-29T01:15:59.726Z,19.53
2022-11-29T01:18:27.522Z,20.67
2022-11-29T01:21:01.952Z,22.07
2022-11-29T01:23:30.138Z,21.10
2022-11-29T01:25:59.847Z,20.93
2022-11-29T01:28:28.605Z,21.60
2022-11-29T01:30:56.470Z,21.67
2022-11-29T01:33:24.301Z,20.83
2022-11-29T01:35:53.474Z,20.43
2022-11-29T01:38:23.694Z,21.27
2022-11-29T01:40:59.820Z,20.57
2022-11-29T01:43:27.975Z,20.73
2022-11-29T01:45:55.955Z,20.60
2022-11-29T01:48:27.150Z,20.57
2022-11-29T01:50:56.282Z,20.70
2022-11-29T01:53:25.422Z,19.87
2022-11-29T01:55:57.547Z,19.30
2022-11-29T01:58:25.490Z,20.73
2022-11-29T02:00:53.434Z,20.07
2022-11-29T02:03:21.211Z,20.87
2022-11-29T02:05:51.459Z,20.47
2022-11-29T02:08:26.175Z,20.73
2022-11-29T02:11:16.811Z,20.50
2022-11-29T02:13:54.638Z,21.93
2022-11-29T02:16:29.050Z,21.47
2022-11-29T02:19:11.122Z,22.07
2022-11-29T02:21:47.564Z,20.87
2022-11-29T02:24:47.727Z,20.10
2022-11-29T02:27:45.845Z,21.77
2022-11-29T02:30:34.668Z,21.93
2022-11-29T02:33:43.902Z,23.00
2022-11-29T02:36:34.081Z,20.77
2022-11-29T02:39:18.883Z,22.07
2022-11-29T02:42:22.288Z,22.27
2022-11-29T02:45:08.788Z,21.77
2022-11-29T02:47:53.226Z,23.30
2022-11-29T02:50:35.580Z,22.27
2022-11-29T02:53:11.501Z,21.97
2022-11-29T02:55:47.587Z,22.50
2022-11-29T02:58:24.340Z,22.73
2022-11-29T03:01:00.644Z,23.53
2022-11-29T03:03:36.669Z,21.90
2022-11-29T03:06:13.037Z,24.37
2022-11-29T03:08:51.546Z,23.63
2022-11-29T03:11:29.301Z,24.17
2022-11-29T03:14:12.939Z,23.60
2022-11-29T03:16:47.853Z,23.07
2022-11-29T03:19:36.174Z,24.83
2022-11-29T03:22:13.030Z,22.50
2022-11-29T03:24:48.886Z,26.73
2022-11-29T03:27:22.967Z,23.53
2022-11-29T03:29:57.832Z,25.00
2022-11-29T03:32:31.670Z,25.63
2022-11-29T03:35:05.679Z,24.33
2022-11-29T03:37:42.936Z,25.43
2022-11-29T03:40:15.646Z,24.60
2022-11-29T03:42:51.003Z,23.87
2022-11-29T03:45:25.909Z,25.30
2022-11-29T03:48:01.002Z,24.57
2022-11-29T03:50:35.673Z,26.63
2022-11-29T03:53:15.608Z,25.40
2022-11-29T03:55:54.776Z,24.60
2022-11-29T03:58:35.613Z,24.37
2022-11-29T04:01:30.391Z,25.37
2022-11-29T04:04:26.539Z,24.83
2022-11-29T04:07:09.818Z,25.77
2022-11-29T04:09:58.176Z,27.23
2022-11-29T04:12:44.477Z,26.30
2022-11-29T04:15:45.503Z,26.90
2022-11-29T04:18:59.997Z,28.33
2022-11-29T04:21:34.717Z,27.57
2022-11-29T04:24:34.759Z,27.60
2022-11-29T04:27:38.844Z,26.10
2022-11-29T04:30:19.880Z,29.17
2022-11-29T04:33:18.143Z,27.30
2022-11-29T04:36:28.615Z,26.23
2022-11-29T04:39:30.439Z,26.50
2022-11-29T04:42:27.876Z,28.80
2022-11-29T04:45:13.742Z,30.20
2022-11-29T04:47:56.772Z,28.93
2022-11-29T04:50:35.052Z,26.60
2022-11-29T04:53:25.327Z,27.07
2022-11-29T04:56:02.308Z,27.17
2022-11-29T04:58:37.846Z,27.53
2022-11-29T05:01:19.253Z,28.33
2022-11-29T05:03:57.258Z,27.53
2022-11-29T05:06:33.632Z,28.30
2022-11-29T05:09:07.105Z,26.77
2022-11-29T05:11:51.153Z,27.60
2022-11-29T05:14:34.371Z,29.50
2022-11-29T05:17:17.768Z,28.53
2022-11-29T05:19:59.490Z,27.63
2022-11-29T05:22:36.704Z,28.43
2022-11-29T05:25:23.118Z,28.17
2022-11-29T05:27:57.868Z,29.77
2022-11-29T05:30:31.690Z,28.13
2022-11-29T05:33:10.723Z,28.37
2022-11-29T05:35:55.763Z,30.80
2022-11-29T05:38:38.591Z,26.63
2022-11-29T05:41:21.219Z,26.57
2022-11-29T05:44:00.862Z,29.00
2022-11-29T05:46:33.144Z,28.17
2022-11-29T05:49:16.568Z,28.60
2022-11-29T05:51:54.494Z,29.57
2022-11-29T05:54:30.615Z,28.63
2022-11-29T05:57:12.576Z,29.37
2022-11-29T05:59:42.407Z,28.93
2022-11-29T06:02:24.055Z,29.83
2022-11-29T06:05:06.473Z,28.17
2022-11-29T06:07:42.545Z,30.93
2022-11-29T06:10:13.527Z,31.23
2022-11-29T06:12:44.567Z,29.63
2022-11-29T06:15:31.810Z,30.83
2022-11-29T06:18:19.103Z,27.47
2022-11-29T06:21:02.568Z,31.90
2022-11-29T06:24:09.730Z,29.60
2022-11-29T06:27:08.154Z,31.43
2022-11-29T06:29:43.304Z,31.00
2022-11-29T06:32:21.859Z,31.80
2022-11-29T06:34:58.965Z,30.33
2022-11-29T06:37:30.830Z,32.17
2022-11-29T06:40:00.508Z,31.00
2022-11-29T06:42:28.221Z,31.80
2022-11-29T06:44:56.600Z,31.87
2022-11-29T06:47:29.349Z,31.27
2022-11-29T06:50:02.511Z,30.50
2022-11-29T06:52:38.676Z,29.97
2022-11-29T06:55:23.677Z,30.90
2022-11-29T06:58:04.181Z,31.27
2022-11-29T07:00:41.155Z,31.03
2022-11-29T07:03:33.742Z,30.90
2022-11-29T07:06:09.753Z,32.43
2022-11-29T07:08:38.080Z,31.47
2022-11-29T07:11:08.154Z,30.90
2022-11-29T07:13:38.321Z,30.50
2022-11-29T07:16:15.048Z,30.63
2022-11-29T07:18:52.157Z,32.50
2022-11-29T07:21:28.787Z,32.43
2022-11-29T07:24:08.612Z,30.97
2022-11-29T07:26:47.371Z,31.10
2022-11-29T07:29:25.623Z,33.00
2022-11-29T07:32:04.381Z,30.93
2022-11-29T07:34:41.312Z,30.57
2022-11-29T07:37:20.717Z,32.30
2022-11-29T07:40:00.196Z,31.07
2022-11-29T07:42:37.446Z,32.80
2022-11-29T07:45:17.674Z,30.87
2022-11-29T07:47:46.259Z,33.37
2022-11-29T07:50:14.481Z,31.33
2022-11-29T07:52:42.370Z,33.67
2022-11-29T07:55:18.435Z,32.00
2022-11-29T07:57:48.663Z,31.13
2022-11-29T08:00:17.582Z,31.13
2022-11-29T08:02:45.321Z,31.97
2022-11-29T08:05:13.531Z,33.17
2022-11-29T08:07:42.277Z,31.47
2022-11-29T08:10:12.518Z,30.93
2022-11-29T08:12:43.932Z,31.97
2022-11-29T08:15:13.626Z,31.97
2022-11-29T08:17:41.628Z,31.27
2022-11-29T08:20:10.903Z,32.20
2022-11-29T08:22:38.895Z,33.40
2022-11-29T08:25:08.531Z,29.80
2022-11-29T08:27:37.043Z,32.77
2022-11-29T08:30:05.678Z,33.70
2022-11-29T08:32:35.448Z,34.53
2022-11-29T08:35:03.284Z,31.73
2022-11-29T08:37:31.055Z,32.10
2022-11-29T08:39:58.993Z,32.63
2022-11-29T08:42:27.020Z,32.47
2022-11-29T08:44:55.004Z,33.13
2022-11-29T08:47:37.762Z,33.30
2022-11-29T08:50:12.133Z,32.97
2022-11-29T08:52:59.966Z,32.07
2022-11-29T08:55:31.686Z,32.37
2022-11-29T08:58:03.795Z,32.50
2022-11-29T09:00:32.006Z,31.83
2022-11-29T09:03:20.158Z,32.03
2022-11-29T09:05:49.355Z,32.50
2022-11-29T09:08:17.265Z,30.43
2022-11-29T09:10:45.476Z,32.93
2022-11-29T09:13:13.677Z,28.40
2022-11-29T09:15:43.584Z,33.67
2022-11-29T09:18:11.654Z,31.50
2022-11-29T09:20:39.437Z,33.27
2022-11-29T09:23:08.543Z,32.33
2022-11-29T09:25:36.240Z,32.57
2022-11-29T09:28:04.003Z,32.20
2022-11-29T09:30:31.947Z,32.77
2022-11-29T09:33:00.531Z,31.50
2022-11-29T09:35:28.284Z,32.27
2022-11-29T09:37:56.039Z,31.47
2022-11-29T09:40:32.937Z,30.93
2022-11-29T09:43:07.412Z,32.03
2022-11-29T09:45:40.464Z,30.87
2022-11-29T09:48:32.931Z,31.37
2022-11-29T09:51:15.191Z,30.33
2022-11-29T09:53:59.387Z,29.37
2022-11-29T09:56:35.592Z,29.67
2022-11-29T09:59:07.121Z,31.37
2022-11-29T10:01:39.597Z,32.13
2022-11-29T10:04:13.816Z,30.93
2022-11-29T10:06:46.909Z,30.67
2022-11-29T10:09:18.834Z,31.33
2022-11-29T10:12:00.970Z,29.83
2022-11-29T10:14:34.755Z,29.57
2022-11-29T10:17:12.455Z,30.00
2022-11-29T10:19:45.534Z,30.53
2022-11-29T10:22:19.815Z,29.87
2022-11-29T10:24:50.992Z,29.00
2022-11-29T10:27:23.703Z,28.00
2022-11-29T10:29:51.927Z,27.80
2022-11-29T10:32:21.585Z,28.20
2022-11-29T10:34:50.173Z,29.53
2022-11-29T10:37:20.495Z,28.33
2022-11-29T10:39:50.538Z,28.20
2022-11-29T10:42:39.480Z,29.97
2022-11-29T10:45:16.615Z,27.63
2022-11-29T10:47:47.096Z,28.70
2022-11-29T10:50:19.485Z,29.10
2022-11-29T10:52:47.206Z,27.87
2022-11-29T10:55:17.338Z,29.73
2022-11-29T10:58:15.695Z,29.00
2022-11-29T11:00:46.040Z,28.77
2022-11-29T11:03:17.896Z,27.63
2022-11-29T11:05:58.825Z,28.20
2022-11-29T11:08:27.463Z,29.37
2022-11-29T11:11:01.210Z,29.17
2022-11-29T11:13:32.795Z,29.63
2022-11-29T11:16:10.322Z,29.90
2022-11-29T11:18:39.051Z,28.40
2022-11-29T11:21:10.301Z,28.27
2022-11-29T11:23:43.524Z,28.23
2022-11-29T11:26:13.942Z,29.70
2022-11-29T11:28:50.257Z,28.30
2022-11-29T11:31:32.301Z,28.53
2022-11-29T11:34:24.751Z,26.13
2022-11-29T11:36:52.688Z,27.63
2022-11-29T11:39:22.582Z,27.77
2022-11-29T11:42:10.209Z,25.70
2022-11-29T11:44:49.583Z,26.53
2022-11-29T11:47:20.382Z,26.03
2022-11-29T11:49:51.010Z,25.50
2022-11-29T11:52:23.058Z,27.43
2022-11-29T11:54:55.927Z,27.10
2022-11-29T11:57:26.034Z,28.63
2022-11-29T12:00:02.035Z,27.27
2022-11-29T12:02:39.816Z,26.77
2022-11-29T12:05:14.620Z,26.30
2022-11-29T12:08:13.575Z,27.67
2022-11-29T12:10:36.691Z,25.03
2022-11-29T12:13:06.006Z,26.07
2022-11-29T12:15:39.458Z,25.47
2022-11-29T12:18:12.551Z,25.73
2022-11-29T12:20:45.255Z,26.43
2022-11-29T12:23:24.625Z,27.23
2022-11-29T12:25:57.159Z,26.47
2022-11-29T12:28:28.914Z,26.80
2022-11-29T12:31:04.389Z,26.30
2022-11-29T12:33:42.011Z,27.00
2022-11-29T12:36:24.293Z,27.23
2022-11-29T12:39:04.786Z,25.70
2022-11-29T12:41:43.607Z,26.30
2022-11-29T12:44:19.576Z,26.40
2022-11-29T12:47:02.111Z,25.83
2022-11-29T12:49:53.913Z,27.07
2022-11-29T12:52:28.104Z,26.30
2022-11-29T12:55:08.014Z,26.37
2022-11-29T12:57:47.894Z,28.00
2022-11-29T13:00:17.469Z,26.57
2022-11-29T13:02:57.708Z,26.97
2022-11-29T13:05:35.480Z,27.47
2022-11-29T13:08:20.460Z,26.93
2022-11-29T13:11:04.714Z,27.43
2022-11-29T13:13:40.549Z,26.43
2022-11-29T13:16:26.300Z,28.03
2022-11-29T13:19:03.829Z,25.57
2022-11-29T13:21:41.452Z,25.63
2022-11-29T13:24:15.434Z,26.43
2022-11-29T13:26:44.543Z,27.37
2022-11-29T13:29:16.677Z,28.10
2022-11-29T13:31:45.682Z,26.47
2022-11-29T13:34:20.710Z,27.10
2022-11-29T13:36:58.945Z,28.03
2022-11-29T13:39:41.996Z,26.70
2022-11-29T13:42:17.891Z,29.10
2022-11-29T13:44:50.674Z,26.67
2022-11-29T13:47:20.023Z,27.97
2022-11-29T13:49:55.142Z,27.00
2022-11-29T13:52:39.818Z,27.03
2022-11-29T13:55:18.465Z,27.47
2022-11-29T13:58:15.676Z,27.47
2022-11-29T14:00:50.640Z,27.23
2022-11-29T14:03:42.948Z,26.20
2022-11-29T14:06:18.368Z,26.13
2022-11-29T14:09:18.423Z,28.63
2022-11-29T14:11:50.132Z,26.80
2022-11-29T14:14:26.928Z,28.60
2022-11-29T14:16:59.288Z,26.10
2022-11-29T14:19:33.329Z,27.50
2022-11-29T14:22:23.987Z,26.70
2022-11-29T14:25:49.662Z,27.50
2022-11-29T14:28:30.342Z,25.67
2022-11-29T14:31:01.514Z,29.03
2022-11-29T14:33:39.268Z,26.90
2022-11-29T14:36:33.228Z,27.20
2022-11-29T14:39:15.720Z,26.77
2022-11-29T14:41:55.186Z,28.50
2022-11-29T14:44:26.031Z,28.77
2022-11-29T14:47:02.837Z,27.40
2022-11-29T14:49:32.879Z,27.07
2022-11-29T14:52:10.250Z,28.80
2022-11-29T14:54:55.671Z,27.90
2022-11-29T14:58:06.986Z,26.60
2022-11-29T15:00:56.151Z,29.10
2022-11-29T15:03:31.780Z,27.60
2022-11-29T15:06:02.078Z,27.43
2022-11-29T15:08:36.494Z,29.60
2022-11-29T15:11:13.070Z,28.83
2022-11-29T15:13:49.724Z,28.37
2022-11-29T15:16:42.805Z,28.10
2022-11-29T15:19:43.554Z,29.23
2022-11-29T15:22:16.745Z,28.03
2022-11-29T15:24:53.082Z,28.70
2022-11-29T15:27:22.985Z,28.70
2022-11-29T15:29:52.340Z,27.57
2022-11-29T15:32:26.111Z,28.80
2022-11-29T15:34:55.477Z,29.90
2022-11-29T15:37:25.391Z,28.17
2022-11-29T15:40:03.947Z,28.97
2022-11-29T15:42:42.485Z,31.80
2022-11-29T15:45:33.143Z,39.97
2022-11-29T15:48:17.993Z,28.53
2022-11-29T15:50:51.862Z,28.50
2022-11-29T15:53:24.841Z,30.33
2022-11-29T15:55:57.632Z,30.50
2022-11-29T15:58:28.981Z,29.60
2022-11-29T16:00:58.945Z,29.57
2022-11-29T16:03:29.944Z,28.97
2022-11-29T16:06:04.454Z,28.93
2022-11-29T16:08:38.012Z,29.43
2022-11-29T16:11:06.986Z,30.47
2022-11-29T16:13:38.395Z,29.33
2022-11-29T16:16:10.757Z,29.87
2022-11-29T16:18:41.950Z,28.93
2022-11-29T16:21:24.092Z,28.20
2022-11-29T16:23:51.891Z,29.20
2022-11-29T16:26:22.904Z,30.40
2022-11-29T16:28:54.704Z,30.47
2022-11-29T16:31:24.348Z,30.70
2022-11-29T16:33:53.689Z,29.77
2022-11-29T16:36:24.483Z,30.03
2022-11-29T16:38:55.346Z,31.27
2022-11-29T16:41:25.656Z,28.60
2022-11-29T16:43:57.493Z,28.17
2022-11-29T16:46:32.344Z,28.97
2022-11-29T16:49:02.512Z,27.33
2022-11-29T16:51:38.696Z,29.30
2022-11-29T16:54:23.961Z,28.80
2022-11-29T16:56:52.761Z,31.57
2022-11-29T16:59:27.471Z,27.93
2022-11-29T17:01:56.669Z,29.63
2022-11-29T17:04:25.307Z,29.27
2022-11-29T17:06:54.020Z,28.30
2022-11-29T17:09:25.389Z,28.87
2022-11-29T17:11:53.334Z,28.80
2022-11-29T17:14:22.385Z,28.80
2022-11-29T17:16:50.478Z,27.30
2022-11-29T17:19:19.422Z,26.43
2022-11-29T17:21:47.513Z,28.70
2022-11-29T17:24:17.149Z,26.27
2022-11-29T17:26:46.212Z,26.03
2022-11-29T17:29:15.613Z,27.47
2022-11-29T17:31:46.366Z,27.27
2022-11-29T17:34:14.448Z,27.73
2022-11-29T17:36:42.573Z,27.53
2022-11-29T17:39:10.329Z,26.83
2022-11-29T17:41:38.174Z,27.37
2022-11-29T17:44:06.288Z,26.67
2022-11-29T17:46:35.873Z,27.13
2022-11-29T17:49:07.297Z,27.73
2022-11-29T17:51:53.740Z,26.83
2022-11-29T17:54:22.183Z,28.07
2022-11-29T17:56:50.307Z,26.97
2022-11-29T17:59:18.025Z,27.90
2022-11-29T18:01:47.037Z,28.43
2022-11-29T18:04:16.427Z,27.17
2022-11-29T18:06:49.776Z,28.70
2022-11-29T18:09:19.545Z,26.43
2022-11-29T18:11:49.913Z,28.70
2022-11-29T18:14:20.229Z,27.23
2022-11-29T18:16:48.100Z,26.93
2022-11-29T18:19:19.459Z,29.00
2022-11-29T18:21:47.373Z,27.30
2022-11-29T18:24:15.098Z,28.77
2022-11-29T18:26:43.278Z,29.70
2022-11-29T18:29:11.326Z,28.10
2022-11-29T18:31:41.012Z,28.60
2022-11-29T18:34:10.625Z,28.83
2022-11-29T18:36:45.847Z,28.50
2022-11-29T18:39:15.324Z,29.90
2022-11-29T18:41:45.234Z,28.27
2022-11-29T18:44:15.183Z,29.67
2022-11-29T18:46:44.662Z,28.70
2022-11-29T18:49:14.270Z,29.37
2022-11-29T18:51:45.803Z,28.77
2022-11-29T18:54:14.238Z,27.87
2022-11-29T18:56:42.828Z,27.87
2022-11-29T18:59:12.362Z,29.07
2022-11-29T19:01:42.535Z,28.83
2022-11-29T19:04:12.526Z,29.57
2022-11-29T19:06:40.521Z,29.50
2022-11-29T19:09:13.246Z,28.60
2022-11-29T19:11:41.243Z,27.80
2022-11-29T19:14:12.546Z,27.03
2022-11-29T19:16:42.080Z,28.30
2022-11-29T19:19:09.937Z,28.90
2022-11-29T19:21:39.626Z,27.10
2022-11-29T19:24:15.117Z,28.57
2022-11-29T19:26:45.342Z,29.37
2022-11-29T19:29:13.860Z,28.00
2022-11-29T19:31:42.560Z,29.03
2022-11-29T19:34:10.461Z,29.83
2022-11-29T19:36:42.822Z,29.07
2022-11-29T19:39:13.534Z,28.73
2022-11-29T19:41:44.009Z,28.70
2022-11-29T19:44:12.568Z,28.10
2022-11-29T19:46:41.839Z,29.67
2022-11-29T19:49:10.305Z,27.53
2022-11-29T19:51:38.511Z,27.20
2022-11-29T19:54:07.690Z,29.63
2022-11-29T19:56:37.021Z,28.40
2022-11-29T19:59:04.766Z,27.87
2022-11-29T20:01:40.171Z,29.17
2022-11-29T20:04:08.960Z,28.20
2022-11-29T20:06:37.151Z,28.37
2022-11-29T20:09:06.383Z,27.27
2022-11-29T20:11:34.197Z,28.43
2022-11-29T20:14:05.159Z,29.10
2022-11-29T20:16:33.565Z,28.03
2022-11-29T20:19:01.723Z,29.33
2022-11-29T20:21:31.465Z,28.17
2022-11-29T20:24:00.611Z,28.33
2022-11-29T20:26:29.400Z,27.60
2022-11-29T20:28:57.111Z,29.07
2022-11-29T20:31:26.290Z,29.43
2022-11-29T20:33:57.263Z,29.87
2022-11-29T20:36:45.264Z,28.53
2022-11-29T20:39:25.639Z,28.57
2022-11-29T20:42:07.103Z,29.17
2022-11-29T20:44:38.898Z,28.40
2022-11-29T20:47:15.350Z,28.87
2022-11-29T20:49:43.528Z,27.50
2022-11-29T20:52:19.036Z,28.97
2022-11-29T20:54:46.780Z,29.90
2022-11-29T20:57:14.555Z,29.83
2022-11-29T20:59:42.309Z,29.47
2022-11-29T21:02:10.129Z,28.97
2022-11-29T21:04:39.556Z,29.07
2022-11-29T21:07:07.378Z,29.50
2022-11-29T21:09:35.104Z,28.77
2022-11-29T21:12:03.262Z,28.20
2022-11-29T21:14:31.588Z,29.07
2022-11-29T21:16:59.876Z,30.60
2022-11-29T21:19:28.129Z,29.90
2022-11-29T21:22:05.948Z,29.60
2022-11-29T21:24:42.573Z,28.97
2022-11-29T21:27:15.111Z,29.27
2022-11-29T21:29:43.395Z,29.03
2022-11-29T21:32:21.592Z,30.20
2022-11-29T21:34:49.323Z,29.30
2022-11-29T21:37:21.527Z,28.83
2022-11-29T21:39:51.651Z,30.07
2022-11-29T21:42:19.734Z,28.80
2022-11-29T21:44:47.766Z,28.87
2022-11-29T21:47:18.449Z,27.80
2022-11-29T21:49:46.758Z,28.70
2022-11-29T21:52:20.703Z,29.67
2022-11-29T21:54:51.724Z,31.43
2022-11-29T21:57:19.445Z,29.47
2022-11-29T21:59:47.180Z,29.53
2022-11-29T22:02:15.058Z,30.53
2022-11-29T22:04:42.989Z,29.00
2022-11-29T22:07:10.838Z,29.33
2022-11-29T22:09:38.556Z,29.53
2022-11-29T22:12:31.951Z,28.73
2022-11-29T22:14:58.523Z,29.37
2022-11-29T22:17:26.260Z,29.87
2022-11-29T22:19:53.976Z,30.03
2022-11-29T22:22:21.699Z,27.27
2022-11-29T22:24:49.721Z,29.20
2022-11-29T22:27:21.590Z,29.43
2022-11-29T22:29:49.344Z,29.63
2022-11-29T22:32:17.172Z,29.03
2022-11-29T22:34:45.163Z,30.03
2022-11-29T22:37:13.284Z,28.13
2022-11-29T22:39:41.032Z,28.43
2022-11-29T22:42:08.749Z,28.50
2022-11-29T22:44:37.810Z,28.87
2022-11-29T22:47:05.649Z,28.40
2022-11-29T22:49:33.422Z,28.40
2022-11-29T22:52:01.359Z,28.87
2022-11-29T22:54:29.123Z,28.73
2022-11-29T22:56:56.833Z,29.90
2022-11-29T22:59:24.535Z,30.63
2022-11-29T23:01:53.714Z,27.97
2022-11-29T23:04:21.420Z,29.37
2022-11-29T23:06:49.148Z,28.93
2022-11-29T23:09:21.220Z,30.77
2022-11-29T23:11:52.139Z,29.17
2022-11-29T23:14:20.370Z,30.17
2022-11-29T23:16:48.161Z,28.87
2022-11-29T23:19:17.584Z,28.83
2022-11-29T23:21:46.246Z,28.13
2022-11-29T23:24:14.580Z,29.47
2022-11-29T23:26:45.502Z,30.63
2022-11-29T23:29:14.881Z,30.50
2022-11-29T23:31:45.233Z,29.67
2022-11-29T23:34:13.132Z,31.40
2022-11-29T23:36:43.954Z,30.13
2022-11-29T23:39:13.500Z,29.23
2022-11-29T23:41:41.271Z,28.07
2022-11-29T23:44:11.028Z,29.97
2022-11-29T23:46:38.787Z,31.37
2022-11-29T23:49:06.517Z,28.43
2022-11-29T23:51:34.241Z,29.33
2022-11-29T23:54:03.307Z,30.60
2022-11-29T23:56:35.180Z,30.20
2022-11-29T23:59:03.059Z,31.10
